Terminal Aerodrome Forecast
Issued by NWS Shreveport, LA

Home | Current Version | Previous Version | Text Only | Print | Product List | Glossary On
Versions: 1 2 3 4 5 6 7 8 9 10 11 12 13 14 15 16 17 18 19 20 21 22 23 24 25
822
FTUS44 KSHV 202132 AAA
TAFGGG
TAF AMD
KGGG 202132Z 2022/2118 13005KT P6SM VCSH SCT020 OVC100
      TEMPO 2022/2102 3SM SHRA BR BKN003 OVC050
     FM210400 18004KT P6SM SCT100
      TEMPO 2109/2113 OVC015
     FM211300 21005KT P6SM BKN020=

USA.gov is the U.S. government's official web portal to all federal, state and local government web resources and services.